sensor_id;sensor_type;location;lat;lon;timestamp;temperature;humidity
12568;DHT22;6349;50.904;6.136;2024-01-07T00:00:21;3.20;99.90
12568;DHT22;6349;50.904;6.136;2024-01-07T00:02:22;3.10;99.90
12568;DHT22;6349;50.904;6.136;2024-01-07T00:04:23;3.10;99.90
12568;DHT22;6349;50.904;6.136;2024-01-07T00:06:23;3.00;99.90
12568;DHT22;6349;50.904;6.136;2024-01-07T00:08:24;3.00;99.90
12568;DHT22;6349;50.904;6.136;2024-01-07T00:10:24;3.00;99.90
12568;DHT22;6349;50.904;6.136;2024-01-07T00:12:25;3.00;99.90
12568;DHT22;6349;50.904;6.136;2024-01-07T00:14:26;2.90;99.90
12568;DHT22;6349;50.904;6.136;2024-01-07T00:16:26;2.90;99.90
12568;DHT22;6349;50.904;6.136;2024-01-07T00:18:27;3.00;99.90
12568;DHT22;6349;50.904;6.136;2024-01-07T00:20:27;3.00;99.90
12568;DHT22;6349;50.904;6.136;2024-01-07T00:22:28;3.00;99.90
12568;DHT22;6349;50.904;6.136;2024-01-07T00:24:28;3.00;99.90
12568;DHT22;6349;50.904;6.136;2024-01-07T00:26:29;3.10;99.90
12568;DHT22;6349;50.904;6.136;2024-01-07T00:28:30;3.10;99.90
12568;DHT22;6349;50.904;6.136;2024-01-07T00:30:30;3.20;99.90
12568;DHT22;6349;50.904;6.136;2024-01-07T00:32:31;3.10;99.90
12568;DHT22;6349;50.904;6.136;2024-01-07T00:34:31;3.10;99.90
12568;DHT22;6349;50.904;6.136;2024-01-07T00:36:32;3.10;99.90
12568;DHT22;6349;50.904;6.136;2024-01-07T00:38:32;3.10;99.90
12568;DHT22;6349;50.904;6.136;2024-01-07T00:40:33;3.10;99.90
12568;DHT22;6349;50.904;6.136;2024-01-07T00:42:34;3.10;99.90
12568;DHT22;6349;50.904;6.136;2024-01-07T00:44:34;3.10;99.90
12568;DHT22;6349;50.904;6.136;2024-01-07T00:46:35;3.10;99.90
12568;DHT22;6349;50.904;6.136;2024-01-07T00:48:35;3.20;99.90
12568;DHT22;6349;50.904;6.136;2024-01-07T00:50:36;3.20;99.90
12568;DHT22;6349;50.904;6.136;2024-01-07T00:52:36;3.20;99.90
12568;DHT22;6349;50.904;6.136;2024-01-07T00:54:37;3.20;99.90
12568;DHT22;6349;50.904;6.136;2024-01-07T00:56:38;3.20;99.90
12568;DHT22;6349;50.904;6.136;2024-01-07T00:58:38;3.20;99.90
12568;DHT22;6349;50.904;6.136;2024-01-07T01:00:39;3.20;99.90
12568;DHT22;6349;50.904;6.136;2024-01-07T01:02:39;3.20;99.90
12568;DHT22;6349;50.904;6.136;2024-01-07T01:04:40;3.10;99.90
12568;DHT22;6349;50.904;6.136;2024-01-07T01:06:41;3.10;99.90
12568;DHT22;6349;50.904;6.136;2024-01-07T01:08:41;3.10;99.90
12568;DHT22;6349;50.904;6.136;2024-01-07T01:10:42;3.10;99.90
12568;DHT22;6349;50.904;6.136;2024-01-07T01:12:43;3.00;99.90
12568;DHT22;6349;50.904;6.136;2024-01-07T01:14:44;3.00;99.90
12568;DHT22;6349;50.904;6.136;2024-01-07T01:16:44;3.00;99.90
12568;DHT22;6349;50.904;6.136;2024-01-07T01:18:45;3.00;99.90
12568;DHT22;6349;50.904;6.136;2024-01-07T01:20:45;3.00;99.90
12568;DHT22;6349;50.904;6.136;2024-01-07T01:22:46;2.90;99.90
12568;DHT22;6349;50.904;6.136;2024-01-07T01:24:46;2.90;99.90
12568;DHT22;6349;50.904;6.136;2024-01-07T01:26:47;3.00;99.90
12568;DHT22;6349;50.904;6.136;2024-01-07T01:28:47;3.00;99.90
12568;DHT22;6349;50.904;6.136;2024-01-07T01:30:48;3.10;99.90
12568;DHT22;6349;50.904;6.136;2024-01-07T01:32:49;3.10;99.90
12568;DHT22;6349;50.904;6.136;2024-01-07T01:34:49;3.10;99.90
12568;DHT22;6349;50.904;6.136;2024-01-07T01:36:50;3.00;99.90
12568;DHT22;6349;50.904;6.136;2024-01-07T01:38:50;3.00;99.90
12568;DHT22;6349;50.904;6.136;2024-01-07T01:40:54;3.00;99.90
12568;DHT22;6349;50.904;6.136;2024-01-07T01:42:55;3.00;99.90
12568;DHT22;6349;50.904;6.136;2024-01-07T01:44:56;3.00;99.90
12568;DHT22;6349;50.904;6.136;2024-01-07T01:47:00;3.00;99.90
12568;DHT22;6349;50.904;6.136;2024-01-07T01:49:01;2.90;99.90
12568;DHT22;6349;50.904;6.136;2024-01-07T01:51:02;2.90;99.90
12568;DHT22;6349;50.904;6.136;2024-01-07T01:53:03;3.00;99.90
12568;DHT22;6349;50.904;6.136;2024-01-07T01:55:04;3.00;99.90
12568;DHT22;6349;50.904;6.136;2024-01-07T01:57:05;3.00;99.90
12568;DHT22;6349;50.904;6.136;2024-01-07T01:59:06;3.00;99.90
12568;DHT22;6349;50.904;6.136;2024-01-07T02:01:07;3.00;99.90
12568;DHT22;6349;50.904;6.136;2024-01-07T02:03:08;2.90;99.90
12568;DHT22;6349;50.904;6.136;2024-01-07T02:05:08;2.90;99.90
12568;DHT22;6349;50.904;6.136;2024-01-07T02:07:09;2.90;99.90
12568;DHT22;6349;50.904;6.136;2024-01-07T02:09:10;2.90;99.90
12568;DHT22;6349;50.904;6.136;2024-01-07T02:11:21;3.00;99.90
12568;DHT22;6349;50.904;6.136;2024-01-07T02:13:22;3.00;99.90
12568;DHT22;6349;50.904;6.136;2024-01-07T02:15:22;3.00;99.90
12568;DHT22;6349;50.904;6.136;2024-01-07T02:17:23;3.00;99.90
12568;DHT22;6349;50.904;6.136;2024-01-07T02:19:23;3.00;99.90
12568;DHT22;6349;50.904;6.136;2024-01-07T02:21:24;3.00;99.90
12568;DHT22;6349;50.904;6.136;2024-01-07T02:23:24;3.00;99.90
12568;DHT22;6349;50.904;6.136;2024-01-07T02:25:25;3.00;99.90
12568;DHT22;6349;50.904;6.136;2024-01-07T02:27:26;3.00;99.90
12568;DHT22;6349;50.904;6.136;2024-01-07T02:29:26;3.00;99.90
12568;DHT22;6349;50.904;6.136;2024-01-07T02:31:27;2.90;99.90
12568;DHT22;6349;50.904;6.136;2024-01-07T02:33:27;3.00;99.90
12568;DHT22;6349;50.904;6.136;2024-01-07T02:35:29;3.00;99.90
12568;DHT22;6349;50.904;6.136;2024-01-07T02:37:30;2.90;99.90
12568;DHT22;6349;50.904;6.136;2024-01-07T02:39:30;2.90;99.90
12568;DHT22;6349;50.904;6.136;2024-01-07T02:41:31;3.00;99.90
12568;DHT22;6349;50.904;6.136;2024-01-07T02:43:31;3.00;99.90
12568;DHT22;6349;50.904;6.136;2024-01-07T02:45:32;2.90;99.90
12568;DHT22;6349;50.904;6.136;2024-01-07T02:47:32;3.00;99.90
12568;DHT22;6349;50.904;6.136;2024-01-07T02:49:33;3.00;99.90
12568;DHT22;6349;50.904;6.136;2024-01-07T02:51:34;3.00;99.90
12568;DHT22;6349;50.904;6.136;2024-01-07T02:53:34;2.90;99.90
12568;DHT22;6349;50.904;6.136;2024-01-07T02:55:35;2.90;99.90
12568;DHT22;6349;50.904;6.136;2024-01-07T02:57:35;3.00;99.90
12568;DHT22;6349;50.904;6.136;2024-01-07T02:59:36;3.00;99.90
12568;DHT22;6349;50.904;6.136;2024-01-07T03:01:36;3.00;99.90
12568;DHT22;6349;50.904;6.136;2024-01-07T03:03:40;2.90;99.90
12568;DHT22;6349;50.904;6.136;2024-01-07T03:05:41;2.90;99.90
12568;DHT22;6349;50.904;6.136;2024-01-07T03:07:41;2.90;99.90
12568;DHT22;6349;50.904;6.136;2024-01-07T03:09:42;3.00;99.90
12568;DHT22;6349;50.904;6.136;2024-01-07T03:11:42;3.00;99.90
12568;DHT22;6349;50.904;6.136;2024-01-07T03:13:43;3.00;99.90
12568;DHT22;6349;50.904;6.136;2024-01-07T03:15:44;2.90;99.90
12568;DHT22;6349;50.904;6.136;2024-01-07T03:17:44;2.90;99.90
12568;DHT22;6349;50.904;6.136;2024-01-07T03:19:45;3.00;99.90
12568;DHT22;6349;50.904;6.136;2024-01-07T03:21:45;3.00;99.90
12568;DHT22;6349;50.904;6.136;2024-01-07T03:23:47;3.00;99.90
12568;DHT22;6349;50.904;6.136;2024-01-07T03:25:47;3.00;99.90
12568;DHT22;6349;50.904;6.136;2024-01-07T03:27:48;3.00;99.90
12568;DHT22;6349;50.904;6.136;2024-01-07T03:29:48;3.00;99.90
12568;DHT22;6349;50.904;6.136;2024-01-07T03:31:49;3.00;99.90
12568;DHT22;6349;50.904;6.136;2024-01-07T03:33:51;3.00;99.90
12568;DHT22;6349;50.904;6.136;2024-01-07T03:35:51;2.90;99.90
12568;DHT22;6349;50.904;6.136;2024-01-07T03:37:52;2.90;99.90
12568;DHT22;6349;50.904;6.136;2024-01-07T03:39:52;2.90;99.90
12568;DHT22;6349;50.904;6.136;2024-01-07T03:41:56;3.00;99.90
12568;DHT22;6349;50.904;6.136;2024-01-07T03:43:56;2.90;99.90
12568;DHT22;6349;50.904;6.136;2024-01-07T03:45:57;2.90;99.90
12568;DHT22;6349;50.904;6.136;2024-01-07T03:47:58;2.90;99.90
12568;DHT22;6349;50.904;6.136;2024-01-07T03:49:58;2.90;99.90
12568;DHT22;6349;50.904;6.136;2024-01-07T03:51:59;2.90;99.90
12568;DHT22;6349;50.904;6.136;2024-01-07T03:53:59;2.90;99.90
12568;DHT22;6349;50.904;6.136;2024-01-07T03:56:00;2.90;99.90
12568;DHT22;6349;50.904;6.136;2024-01-07T03:58:00;2.90;99.90
12568;DHT22;6349;50.904;6.136;2024-01-07T04:00:01;2.80;99.90
12568;DHT22;6349;50.904;6.136;2024-01-07T04:02:02;2.90;99.90
12568;DHT22;6349;50.904;6.136;2024-01-07T04:04:02;2.90;99.90
12568;DHT22;6349;50.904;6.136;2024-01-07T04:06:06;2.90;99.90
12568;DHT22;6349;50.904;6.136;2024-01-07T04:08:09;2.90;99.90
12568;DHT22;6349;50.904;6.136;2024-01-07T04:10:10;2.90;99.90
12568;DHT22;6349;50.904;6.136;2024-01-07T04:12:10;2.90;99.90
12568;DHT22;6349;50.904;6.136;2024-01-07T04:14:17;2.80;99.90
12568;DHT22;6349;50.904;6.136;2024-01-07T04:16:20;2.90;99.90
12568;DHT22;6349;50.904;6.136;2024-01-07T04:18:21;2.80;99.90
12568;DHT22;6349;50.904;6.136;2024-01-07T04:20:22;2.80;99.90
12568;DHT22;6349;50.904;6.136;2024-01-07T04:22:22;2.80;99.90
12568;DHT22;6349;50.904;6.136;2024-01-07T04:24:23;2.80;99.90
12568;DHT22;6349;50.904;6.136;2024-01-07T04:26:24;2.80;99.90
12568;DHT22;6349;50.904;6.136;2024-01-07T04:28:24;2.80;99.90
12568;DHT22;6349;50.904;6.136;2024-01-07T04:30:25;2.70;99.90
12568;DHT22;6349;50.904;6.136;2024-01-07T04:32:25;2.70;99.90
12568;DHT22;6349;50.904;6.136;2024-01-07T04:34:26;2.70;99.90
12568;DHT22;6349;50.904;6.136;2024-01-07T04:36:27;2.70;99.90
12568;DHT22;6349;50.904;6.136;2024-01-07T04:38:27;2.70;99.90
12568;DHT22;6349;50.904;6.136;2024-01-07T04:40:28;2.70;99.90
12568;DHT22;6349;50.904;6.136;2024-01-07T04:42:28;2.70;99.90
12568;DHT22;6349;50.904;6.136;2024-01-07T04:44:29;2.70;99.90
12568;DHT22;6349;50.904;6.136;2024-01-07T04:46:30;2.70;99.90
12568;DHT22;6349;50.904;6.136;2024-01-07T04:48:33;2.80;99.90
12568;DHT22;6349;50.904;6.136;2024-01-07T04:50:34;2.70;99.90
12568;DHT22;6349;50.904;6.136;2024-01-07T04:52:34;2.70;99.90
12568;DHT22;6349;50.904;6.136;2024-01-07T04:54:36;2.80;99.90
12568;DHT22;6349;50.904;6.136;2024-01-07T04:56:36;2.80;99.90
12568;DHT22;6349;50.904;6.136;2024-01-07T04:58:37;2.80;99.90
12568;DHT22;6349;50.904;6.136;2024-01-07T05:00:37;2.70;99.90
12568;DHT22;6349;50.904;6.136;2024-01-07T05:02:38;2.70;99.90
12568;DHT22;6349;50.904;6.136;2024-01-07T05:04:38;2.70;99.90
12568;DHT22;6349;50.904;6.136;2024-01-07T05:06:39;2.70;99.90
12568;DHT22;6349;50.904;6.136;2024-01-07T05:08:41;2.70;99.90
12568;DHT22;6349;50.904;6.136;2024-01-07T05:10:41;2.70;99.90
12568;DHT22;6349;50.904;6.136;2024-01-07T05:12:42;2.70;99.90
12568;DHT22;6349;50.904;6.136;2024-01-07T05:14:42;2.70;99.90
12568;DHT22;6349;50.904;6.136;2024-01-07T05:16:43;2.60;99.90
12568;DHT22;6349;50.904;6.136;2024-01-07T05:18:44;2.60;99.90
12568;DHT22;6349;50.904;6.136;2024-01-07T05:20:52;2.60;99.90
12568;DHT22;6349;50.904;6.136;2024-01-07T05:22:52;2.70;99.90
12568;DHT22;6349;50.904;6.136;2024-01-07T05:24:53;2.70;99.90
12568;DHT22;6349;50.904;6.136;2024-01-07T05:26:53;2.70;99.90
12568;DHT22;6349;50.904;6.136;2024-01-07T05:28:54;2.70;99.90
12568;DHT22;6349;50.904;6.136;2024-01-07T05:30:55;2.70;99.90
12568;DHT22;6349;50.904;6.136;2024-01-07T05:32:55;2.70;99.90
12568;DHT22;6349;50.904;6.136;2024-01-07T05:34:56;2.70;99.90
12568;DHT22;6349;50.904;6.136;2024-01-07T05:36:56;2.60;99.90
12568;DHT22;6349;50.904;6.136;2024-01-07T05:38:57;2.60;99.90
12568;DHT22;6349;50.904;6.136;2024-01-07T05:40:58;2.70;99.90
12568;DHT22;6349;50.904;6.136;2024-01-07T05:42:58;2.70;99.90
12568;DHT22;6349;50.904;6.136;2024-01-07T05:44:59;2.70;99.90
12568;DHT22;6349;50.904;6.136;2024-01-07T05:46:59;2.70;99.90
12568;DHT22;6349;50.904;6.136;2024-01-07T05:49:00;2.60;99.90
12568;DHT22;6349;50.904;6.136;2024-01-07T05:51:00;2.60;99.90
12568;DHT22;6349;50.904;6.136;2024-01-07T05:53:01;2.60;99.90
12568;DHT22;6349;50.904;6.136;2024-01-07T05:55:02;2.60;99.90
12568;DHT22;6349;50.904;6.136;2024-01-07T05:57:02;2.60;99.90
12568;DHT22;6349;50.904;6.136;2024-01-07T05:59:03;2.60;99.90
12568;DHT22;6349;50.904;6.136;2024-01-07T06:01:04;2.60;99.90
12568;DHT22;6349;50.904;6.136;2024-01-07T06:03:04;2.50;99.90
12568;DHT22;6349;50.904;6.136;2024-01-07T06:05:05;2.60;99.90
12568;DHT22;6349;50.904;6.136;2024-01-07T06:07:06;2.60;99.90
12568;DHT22;6349;50.904;6.136;2024-01-07T06:09:06;2.60;99.90
12568;DHT22;6349;50.904;6.136;2024-01-07T06:11:07;2.60;99.90
12568;DHT22;6349;50.904;6.136;2024-01-07T06:13:08;2.60;99.90
12568;DHT22;6349;50.904;6.136;2024-01-07T06:15:09;2.60;99.90
12568;DHT22;6349;50.904;6.136;2024-01-07T06:17:10;2.60;99.90
12568;DHT22;6349;50.904;6.136;2024-01-07T06:19:10;2.50;99.90
12568;DHT22;6349;50.904;6.136;2024-01-07T06:21:11;2.50;99.90
12568;DHT22;6349;50.904;6.136;2024-01-07T06:23:11;2.50;99.90
12568;DHT22;6349;50.904;6.136;2024-01-07T06:25:12;2.50;99.90
12568;DHT22;6349;50.904;6.136;2024-01-07T06:27:13;2.50;99.90
12568;DHT22;6349;50.904;6.136;2024-01-07T06:29:14;2.50;99.90
12568;DHT22;6349;50.904;6.136;2024-01-07T06:31:14;2.50;99.90
12568;DHT22;6349;50.904;6.136;2024-01-07T06:33:15;2.60;99.90
12568;DHT22;6349;50.904;6.136;2024-01-07T06:35:15;2.50;99.90
12568;DHT22;6349;50.904;6.136;2024-01-07T06:37:16;2.50;99.90
12568;DHT22;6349;50.904;6.136;2024-01-07T06:39:17;2.50;99.90
12568;DHT22;6349;50.904;6.136;2024-01-07T06:41:17;2.50;99.90
12568;DHT22;6349;50.904;6.136;2024-01-07T06:43:18;2.40;99.90
12568;DHT22;6349;50.904;6.136;2024-01-07T06:45:19;2.40;99.90
12568;DHT22;6349;50.904;6.136;2024-01-07T06:47:19;2.40;99.90
12568;DHT22;6349;50.904;6.136;2024-01-07T06:49:20;2.40;99.90
12568;DHT22;6349;50.904;6.136;2024-01-07T06:51:20;2.40;99.90
12568;DHT22;6349;50.904;6.136;2024-01-07T06:53:21;2.40;99.90
12568;DHT22;6349;50.904;6.136;2024-01-07T06:55:22;2.50;99.90
12568;DHT22;6349;50.904;6.136;2024-01-07T06:57:22;2.50;99.90
12568;DHT22;6349;50.904;6.136;2024-01-07T06:59:23;2.50;99.90
12568;DHT22;6349;50.904;6.136;2024-01-07T07:01:23;2.50;99.90
12568;DHT22;6349;50.904;6.136;2024-01-07T07:03:24;2.50;99.90
12568;DHT22;6349;50.904;6.136;2024-01-07T07:05:25;2.50;99.90
12568;DHT22;6349;50.904;6.136;2024-01-07T07:07:25;2.50;99.90
12568;DHT22;6349;50.904;6.136;2024-01-07T07:09:26;2.50;99.90
12568;DHT22;6349;50.904;6.136;2024-01-07T07:11:26;2.40;99.90
12568;DHT22;6349;50.904;6.136;2024-01-07T07:13:27;2.40;99.90
12568;DHT22;6349;50.904;6.136;2024-01-07T07:15:27;2.40;99.90
12568;DHT22;6349;50.904;6.136;2024-01-07T07:17:28;2.40;99.90
12568;DHT22;6349;50.904;6.136;2024-01-07T07:19:29;2.40;99.90
12568;DHT22;6349;50.904;6.136;2024-01-07T07:21:30;2.40;99.90
12568;DHT22;6349;50.904;6.136;2024-01-07T07:23:30;2.40;99.90
12568;DHT22;6349;50.904;6.136;2024-01-07T07:25:31;2.40;99.90
12568;DHT22;6349;50.904;6.136;2024-01-07T07:27:31;2.40;99.90
12568;DHT22;6349;50.904;6.136;2024-01-07T07:29:32;2.40;99.90
12568;DHT22;6349;50.904;6.136;2024-01-07T07:31:32;2.40;99.90
12568;DHT22;6349;50.904;6.136;2024-01-07T07:33:33;2.30;99.90
12568;DHT22;6349;50.904;6.136;2024-01-07T07:35:34;2.40;99.90
12568;DHT22;6349;50.904;6.136;2024-01-07T07:37:34;2.40;99.90
12568;DHT22;6349;50.904;6.136;2024-01-07T07:39:35;2.40;99.90
12568;DHT22;6349;50.904;6.136;2024-01-07T07:41:35;2.40;99.90
12568;DHT22;6349;50.904;6.136;2024-01-07T07:43:36;2.40;99.90
12568;DHT22;6349;50.904;6.136;2024-01-07T07:45:36;2.40;99.90
12568;DHT22;6349;50.904;6.136;2024-01-07T07:47:37;2.40;99.90
12568;DHT22;6349;50.904;6.136;2024-01-07T07:49:38;2.40;99.90
12568;DHT22;6349;50.904;6.136;2024-01-07T07:51:40;2.40;99.90
12568;DHT22;6349;50.904;6.136;2024-01-07T07:53:41;2.40;99.90
12568;DHT22;6349;50.904;6.136;2024-01-07T07:55:42;2.40;99.90
12568;DHT22;6349;50.904;6.136;2024-01-07T07:57:42;2.40;99.90
12568;DHT22;6349;50.904;6.136;2024-01-07T07:59:43;2.40;99.90
12568;DHT22;6349;50.904;6.136;2024-01-07T08:01:43;2.40;99.90
12568;DHT22;6349;50.904;6.136;2024-01-07T08:03:45;2.30;99.90
12568;DHT22;6349;50.904;6.136;2024-01-07T08:05:46;2.30;99.90
12568;DHT22;6349;50.904;6.136;2024-01-07T08:07:47;2.30;99.90
12568;DHT22;6349;50.904;6.136;2024-01-07T08:09:47;2.30;99.90
12568;DHT22;6349;50.904;6.136;2024-01-07T08:11:48;2.30;99.90
12568;DHT22;6349;50.904;6.136;2024-01-07T08:13:48;2.30;99.90
12568;DHT22;6349;50.904;6.136;2024-01-07T08:15:49;2.30;99.90
12568;DHT22;6349;50.904;6.136;2024-01-07T08:17:49;2.30;99.90
12568;DHT22;6349;50.904;6.136;2024-01-07T08:19:52;2.20;99.90
12568;DHT22;6349;50.904;6.136;2024-01-07T08:21:53;2.20;99.90
12568;DHT22;6349;50.904;6.136;2024-01-07T08:23:54;2.10;99.90
12568;DHT22;6349;50.904;6.136;2024-01-07T08:25:54;2.20;99.90
12568;DHT22;6349;50.904;6.136;2024-01-07T08:27:55;2.20;99.90
12568;DHT22;6349;50.904;6.136;2024-01-07T08:29:55;2.20;99.90
12568;DHT22;6349;50.904;6.136;2024-01-07T08:31:56;2.20;99.90
12568;DHT22;6349;50.904;6.136;2024-01-07T08:33:56;2.20;99.90
12568;DHT22;6349;50.904;6.136;2024-01-07T08:35:57;2.20;99.90
12568;DHT22;6349;50.904;6.136;2024-01-07T08:37:57;2.20;99.90
12568;DHT22;6349;50.904;6.136;2024-01-07T08:39:58;2.20;99.90
12568;DHT22;6349;50.904;6.136;2024-01-07T08:41:59;2.20;99.90
12568;DHT22;6349;50.904;6.136;2024-01-07T08:44:00;2.30;99.90
12568;DHT22;6349;50.904;6.136;2024-01-07T08:46:03;2.30;99.90
12568;DHT22;6349;50.904;6.136;2024-01-07T08:48:05;2.30;99.90
12568;DHT22;6349;50.904;6.136;2024-01-07T08:50:06;2.20;99.90
12568;DHT22;6349;50.904;6.136;2024-01-07T08:52:07;2.20;99.90
12568;DHT22;6349;50.904;6.136;2024-01-07T08:54:08;2.20;99.90
12568;DHT22;6349;50.904;6.136;2024-01-07T08:56:08;2.20;99.90
12568;DHT22;6349;50.904;6.136;2024-01-07T08:58:09;2.20;99.90
12568;DHT22;6349;50.904;6.136;2024-01-07T09:00:10;2.20;99.90
12568;DHT22;6349;50.904;6.136;2024-01-07T09:02:11;2.10;99.90
12568;DHT22;6349;50.904;6.136;2024-01-07T09:04:11;2.20;99.90
12568;DHT22;6349;50.904;6.136;2024-01-07T09:06:12;2.10;99.90
12568;DHT22;6349;50.904;6.136;2024-01-07T09:08:12;2.20;99.90
12568;DHT22;6349;50.904;6.136;2024-01-07T09:10:14;2.20;99.90
12568;DHT22;6349;50.904;6.136;2024-01-07T09:12:15;2.10;99.90
12568;DHT22;6349;50.904;6.136;2024-01-07T09:14:16;2.20;99.90
12568;DHT22;6349;50.904;6.136;2024-01-07T09:16:17;2.10;99.90
12568;DHT22;6349;50.904;6.136;2024-01-07T09:18:17;2.10;99.90
12568;DHT22;6349;50.904;6.136;2024-01-07T09:20:19;2.10;99.90
12568;DHT22;6349;50.904;6.136;2024-01-07T09:22:20;2.10;99.90
12568;DHT22;6349;50.904;6.136;2024-01-07T09:24:21;2.10;99.90
12568;DHT22;6349;50.904;6.136;2024-01-07T09:26:22;2.10;99.90
12568;DHT22;6349;50.904;6.136;2024-01-07T09:28:22;2.10;99.90
12568;DHT22;6349;50.904;6.136;2024-01-07T09:30:23;2.10;99.90
12568;DHT22;6349;50.904;6.136;2024-01-07T09:32:23;2.10;99.90
12568;DHT22;6349;50.904;6.136;2024-01-07T09:34:24;2.10;99.90
12568;DHT22;6349;50.904;6.136;2024-01-07T09:36:25;2.10;99.90
12568;DHT22;6349;50.904;6.136;2024-01-07T09:38:26;2.10;99.90
12568;DHT22;6349;50.904;6.136;2024-01-07T09:40:26;2.10;99.90
12568;DHT22;6349;50.904;6.136;2024-01-07T09:42:27;2.00;99.90
12568;DHT22;6349;50.904;6.136;2024-01-07T09:44:27;2.10;99.90
12568;DHT22;6349;50.904;6.136;2024-01-07T09:46:29;2.10;99.90
12568;DHT22;6349;50.904;6.136;2024-01-07T09:48:32;2.10;99.90
12568;DHT22;6349;50.904;6.136;2024-01-07T09:50:33;2.10;99.90
12568;DHT22;6349;50.904;6.136;2024-01-07T09:52:33;2.10;99.90
12568;DHT22;6349;50.904;6.136;2024-01-07T09:54:36;2.10;99.90
12568;DHT22;6349;50.904;6.136;2024-01-07T09:56:42;2.20;99.90
12568;DHT22;6349;50.904;6.136;2024-01-07T09:58:48;2.20;99.90
12568;DHT22;6349;50.904;6.136;2024-01-07T10:00:50;2.10;99.90
12568;DHT22;6349;50.904;6.136;2024-01-07T10:02:50;2.10;99.90
12568;DHT22;6349;50.904;6.136;2024-01-07T10:04:51;2.10;99.90
12568;DHT22;6349;50.904;6.136;2024-01-07T10:06:51;2.10;99.90
12568;DHT22;6349;50.904;6.136;2024-01-07T10:08:55;2.00;99.90
12568;DHT22;6349;50.904;6.136;2024-01-07T10:10:55;2.00;99.90
12568;DHT22;6349;50.904;6.136;2024-01-07T10:12:56;2.10;99.90
12568;DHT22;6349;50.904;6.136;2024-01-07T10:14:57;1.90;99.90
12568;DHT22;6349;50.904;6.136;2024-01-07T10:16:58;1.90;99.90
12568;DHT22;6349;50.904;6.136;2024-01-07T10:18:58;1.80;99.90
12568;DHT22;6349;50.904;6.136;2024-01-07T10:21:02;1.80;99.90
12568;DHT22;6349;50.904;6.136;2024-01-07T10:23:04;1.80;99.90
12568;DHT22;6349;50.904;6.136;2024-01-07T10:25:05;1.70;99.90
12568;DHT22;6349;50.904;6.136;2024-01-07T10:27:07;1.80;99.90
12568;DHT22;6349;50.904;6.136;2024-01-07T10:29:08;1.80;99.90
12568;DHT22;6349;50.904;6.136;2024-01-07T10:31:09;1.90;99.90
12568;DHT22;6349;50.904;6.136;2024-01-07T10:33:09;1.90;99.90
12568;DHT22;6349;50.904;6.136;2024-01-07T10:35:13;1.90;99.90
12568;DHT22;6349;50.904;6.136;2024-01-07T10:37:16;1.80;99.90
12568;DHT22;6349;50.904;6.136;2024-01-07T10:39:17;1.90;99.90
12568;DHT22;6349;50.904;6.136;2024-01-07T10:41:19;1.80;99.90
12568;DHT22;6349;50.904;6.136;2024-01-07T10:43:19;1.80;99.90
12568;DHT22;6349;50.904;6.136;2024-01-07T10:45:20;1.80;99.90
12568;DHT22;6349;50.904;6.136;2024-01-07T10:47:22;1.80;99.90
12568;DHT22;6349;50.904;6.136;2024-01-07T10:49:25;1.70;99.90
12568;DHT22;6349;50.904;6.136;2024-01-07T10:51:32;1.70;99.90
12568;DHT22;6349;50.904;6.136;2024-01-07T10:53:34;1.80;99.90
12568;DHT22;6349;50.904;6.136;2024-01-07T10:55:38;1.80;99.90
12568;DHT22;6349;50.904;6.136;2024-01-07T10:57:46;1.80;99.90
12568;DHT22;6349;50.904;6.136;2024-01-07T10:59:47;1.80;99.90
12568;DHT22;6349;50.904;6.136;2024-01-07T11:01:49;1.80;99.90
12568;DHT22;6349;50.904;6.136;2024-01-07T11:04:08;1.80;99.90
12568;DHT22;6349;50.904;6.136;2024-01-07T11:08:46;1.80;99.90
12568;DHT22;6349;50.904;6.136;2024-01-07T11:11:04;1.80;99.90
12568;DHT22;6349;50.904;6.136;2024-01-07T11:13:06;1.80;99.90
12568;DHT22;6349;50.904;6.136;2024-01-07T11:15:07;1.80;99.90
12568;DHT22;6349;50.904;6.136;2024-01-07T11:17:08;1.80;99.90
12568;DHT22;6349;50.904;6.136;2024-01-07T11:19:09;1.80;99.90
12568;DHT22;6349;50.904;6.136;2024-01-07T11:21:21;1.80;99.90
12568;DHT22;6349;50.904;6.136;2024-01-07T11:23:33;1.80;99.90
12568;DHT22;6349;50.904;6.136;2024-01-07T11:25:36;1.70;99.90
12568;DHT22;6349;50.904;6.136;2024-01-07T11:27:40;1.70;99.90
12568;DHT22;6349;50.904;6.136;2024-01-07T11:29:41;1.60;99.90
12568;DHT22;6349;50.904;6.136;2024-01-07T11:33:43;1.70;99.90
12568;DHT22;6349;50.904;6.136;2024-01-07T11:37:54;1.60;99.90
12568;DHT22;6349;50.904;6.136;2024-01-07T11:39:56;1.60;99.90
12568;DHT22;6349;50.904;6.136;2024-01-07T11:42:02;1.60;99.90
12568;DHT22;6349;50.904;6.136;2024-01-07T11:44:03;1.60;99.90
12568;DHT22;6349;50.904;6.136;2024-01-07T11:46:04;1.70;99.90
12568;DHT22;6349;50.904;6.136;2024-01-07T11:48:05;1.70;99.90
12568;DHT22;6349;50.904;6.136;2024-01-07T11:50:06;1.70;99.90
12568;DHT22;6349;50.904;6.136;2024-01-07T11:52:08;1.70;99.90
12568;DHT22;6349;50.904;6.136;2024-01-07T11:54:10;1.70;99.90
12568;DHT22;6349;50.904;6.136;2024-01-07T11:56:12;1.70;99.90
12568;DHT22;6349;50.904;6.136;2024-01-07T11:58:13;1.70;99.90
12568;DHT22;6349;50.904;6.136;2024-01-07T12:00:14;1.70;99.90
12568;DHT22;6349;50.904;6.136;2024-01-07T12:02:14;1.70;99.90
12568;DHT22;6349;50.904;6.136;2024-01-07T12:04:17;1.70;99.90
12568;DHT22;6349;50.904;6.136;2024-01-07T12:06:19;1.60;99.90
12568;DHT22;6349;50.904;6.136;2024-01-07T12:08:19;1.70;99.90
12568;DHT22;6349;50.904;6.136;2024-01-07T12:10:21;1.70;99.90
12568;DHT22;6349;50.904;6.136;2024-01-07T12:12:21;1.70;99.90
12568;DHT22;6349;50.904;6.136;2024-01-07T12:14:22;1.70;99.90
12568;DHT22;6349;50.904;6.136;2024-01-07T12:16:23;1.70;99.90
12568;DHT22;6349;50.904;6.136;2024-01-07T12:18:23;1.70;99.90
12568;DHT22;6349;50.904;6.136;2024-01-07T12:20:27;1.70;99.90
12568;DHT22;6349;50.904;6.136;2024-01-07T12:22:27;1.70;99.90
12568;DHT22;6349;50.904;6.136;2024-01-07T12:24:28;1.70;99.90
12568;DHT22;6349;50.904;6.136;2024-01-07T12:26:29;1.70;99.90
12568;DHT22;6349;50.904;6.136;2024-01-07T12:28:29;1.70;99.90
12568;DHT22;6349;50.904;6.136;2024-01-07T12:30:30;1.70;99.90
12568;DHT22;6349;50.904;6.136;2024-01-07T12:32:31;1.70;99.90
12568;DHT22;6349;50.904;6.136;2024-01-07T12:34:32;1.60;99.90
12568;DHT22;6349;50.904;6.136;2024-01-07T12:36:33;1.60;99.90
12568;DHT22;6349;50.904;6.136;2024-01-07T12:38:37;1.60;99.90
12568;DHT22;6349;50.904;6.136;2024-01-07T12:40:38;1.60;99.90
12568;DHT22;6349;50.904;6.136;2024-01-07T12:42:40;1.60;99.90
12568;DHT22;6349;50.904;6.136;2024-01-07T12:44:44;1.50;99.90
12568;DHT22;6349;50.904;6.136;2024-01-07T12:46:45;1.50;99.90
12568;DHT22;6349;50.904;6.136;2024-01-07T12:48:48;1.50;99.90
12568;DHT22;6349;50.904;6.136;2024-01-07T12:50:49;1.50;99.90
12568;DHT22;6349;50.904;6.136;2024-01-07T12:52:49;1.50;99.90
12568;DHT22;6349;50.904;6.136;2024-01-07T12:54:50;1.40;99.90
12568;DHT22;6349;50.904;6.136;2024-01-07T12:56:50;1.40;99.90
12568;DHT22;6349;50.904;6.136;2024-01-07T12:58:52;1.40;99.90
12568;DHT22;6349;50.904;6.136;2024-01-07T13:00:52;1.40;99.90
12568;DHT22;6349;50.904;6.136;2024-01-07T13:02:53;1.30;99.90
12568;DHT22;6349;50.904;6.136;2024-01-07T13:04:54;1.40;99.90
12568;DHT22;6349;50.904;6.136;2024-01-07T13:06:55;1.30;99.90
12568;DHT22;6349;50.904;6.136;2024-01-07T13:08:56;1.40;99.90
12568;DHT22;6349;50.904;6.136;2024-01-07T13:10:56;1.40;99.90
12568;DHT22;6349;50.904;6.136;2024-01-07T13:12:57;1.40;99.90
12568;DHT22;6349;50.904;6.136;2024-01-07T13:14:57;1.50;99.90
12568;DHT22;6349;50.904;6.136;2024-01-07T13:16:58;1.50;99.90